Time;durP1;ratioP1;P1;durP2;ratioP2;P2;SDS_P1;SDS_P2;PMS_P1;PMS_P2;Temp;Humidity;BMP_temperature;BMP_pressure;BME280_temperature;BME280_humidity;BME280_pressure;Samples;Min_cycle;Max_cycle;Signal;HPM_P1;HPM_P2
2021/11/29 00:02:23;;;;;;;10.10;3.23;;;1.20;99.90;;;;;;4996464;28;20033;-88
2021/11/29 00:04:55;;;;;;;11.10;3.47;;;1.10;99.90;;;;;;4997210;28;20034;-87
2021/11/29 00:07:23;;;;;;;6.95;3.33;;;1.10;99.90;;;;;;5018330;28;20054;-88
2021/11/29 00:09:56;;;;;;;8.50;3.63;;;1.20;99.90;;;;;;4999266;28;20122;-87
2021/11/29 00:12:22;;;;;;;8.53;3.60;;;1.20;99.90;;;;;;4979927;28;20431;-87
2021/11/29 00:14:49;;;;;;;8.80;3.47;;;1.20;99.90;;;;;;4998477;28;20022;-88
2021/11/29 00:17:17;;;;;;;5.90;2.73;;;1.10;99.90;;;;;;4984468;28;20026;-87
2021/11/29 00:19:43;;;;;;;5.70;2.47;;;1.20;99.90;;;;;;5000562;28;20026;-87
2021/11/29 00:22:14;;;;;;;5.63;2.73;;;1.20;99.90;;;;;;4999870;28;20113;-87
2021/11/29 00:24:40;;;;;;;6.73;2.77;;;1.20;99.90;;;;;;4995676;28;20105;-87
2021/11/29 00:27:06;;;;;;;6.13;2.67;;;1.20;99.90;;;;;;4997839;28;20132;-86
2021/11/29 00:29:32;;;;;;;7.60;3.20;;;1.20;99.90;;;;;;4979679;28;20022;-87
2021/11/29 00:31:57;;;;;;;6.80;3.27;;;1.20;99.90;;;;;;4980576;28;20077;-87
2021/11/29 00:34:24;;;;;;;7.43;2.77;;;1.30;99.90;;;;;;4997318;28;20022;-87
2021/11/29 00:36:50;;;;;;;9.43;3.63;;;1.20;99.90;;;;;;4980258;28;20105;-86
2021/11/29 00:39:17;;;;;;;9.50;4.53;;;1.30;99.90;;;;;;4979774;28;20474;-86
2021/11/29 00:41:43;;;;;;;7.80;3.23;;;1.20;99.90;;;;;;4979418;28;20030;-87
2021/11/29 00:44:09;;;;;;;9.07;4.23;;;1.20;99.90;;;;;;4998578;28;20034;-86
2021/11/29 00:46:35;;;;;;;8.60;4.13;;;1.20;99.90;;;;;;5014156;28;20057;-87
2021/11/29 00:49:03;;;;;;;9.83;4.23;;;1.20;99.90;;;;;;5012590;28;20027;-87
2021/11/29 00:51:29;;;;;;;10.60;5.10;;;1.20;99.90;;;;;;4999909;28;20034;-87
2021/11/29 00:53:57;;;;;;;13.13;4.60;;;1.20;99.90;;;;;;4998980;28;20065;-87
2021/11/29 00:56:23;;;;;;;8.83;4.70;;;1.20;99.90;;;;;;5017450;28;20022;-87
2021/11/29 00:58:49;;;;;;;10.43;4.53;;;1.20;99.90;;;;;;5011305;28;20019;-86
2021/11/29 01:01:16;;;;;;;12.53;5.20;;;1.20;99.90;;;;;;4995701;28;20022;-86
2021/11/29 01:03:42;;;;;;;13.87;4.80;;;1.20;99.90;;;;;;5004324;28;20030;-86
2021/11/29 01:06:08;;;;;;;10.57;4.93;;;1.20;99.90;;;;;;5016521;28;20033;-87
2021/11/29 01:08:34;;;;;;;10.30;4.73;;;1.10;99.90;;;;;;5012882;28;20041;-86
2021/11/29 01:11:01;;;;;;;10.67;4.70;;;1.20;99.90;;;;;;4992210;28;20096;-86
2021/11/29 01:13:27;;;;;;;9.23;4.47;;;1.20;99.90;;;;;;5015559;28;20037;-87
2021/11/29 01:15:52;;;;;;;11.47;5.20;;;1.20;99.90;;;;;;4998331;28;20026;-87
2021/11/29 01:18:18;;;;;;;11.33;4.57;;;1.20;99.90;;;;;;4997720;28;20088;-85
2021/11/29 01:20:45;;;;;;;13.63;5.73;;;1.20;99.90;;;;;;4979191;28;20057;-86
2021/11/29 01:23:12;;;;;;;12.60;5.27;;;1.20;99.90;;;;;;4982957;28;20089;-87
2021/11/29 01:25:38;;;;;;;11.87;4.57;;;1.20;99.90;;;;;;5002571;28;20109;-86
2021/11/29 01:28:04;;;;;;;11.67;5.13;;;1.10;99.90;;;;;;4999969;28;20038;-86
2021/11/29 01:30:30;;;;;;;13.77;5.40;;;1.10;99.90;;;;;;5000542;28;20026;-86
2021/11/29 01:32:56;;;;;;;12.77;5.13;;;1.10;99.90;;;;;;4993878;28;20102;-88
2021/11/29 01:35:22;;;;;;;13.37;5.87;;;1.10;99.90;;;;;;5013590;28;20091;-86
2021/11/29 01:37:48;;;;;;;11.93;6.33;;;1.10;99.90;;;;;;5011083;28;20032;-87
2021/11/29 01:40:14;;;;;;;13.60;5.77;;;1.10;99.90;;;;;;4978619;28;20110;-86
2021/11/29 01:43:09;;;;;;;13.63;5.57;;;1.10;99.90;;;;;;5006332;28;20026;-86
2021/11/29 01:45:44;;;;;;;11.90;5.23;;;1.10;99.90;;;;;;5015048;28;20034;-85
2021/11/29 01:48:10;;;;;;;11.47;5.60;;;1.10;99.90;;;;;;5000417;28;20116;-85
2021/11/29 01:50:37;;;;;;;15.00;5.90;;;1.10;99.90;;;;;;4978645;28;20554;-86
2021/11/29 01:53:05;;;;;;;13.53;5.93;;;1.10;99.90;;;;;;4994999;28;20148;-86
2021/11/29 01:55:31;;;;;;;12.57;5.37;;;1.10;99.90;;;;;;4994812;28;20113;-86
2021/11/29 01:57:56;;;;;;;14.13;6.23;;;1.10;99.90;;;;;;4993852;28;20414;-87
2021/11/29 02:00:26;;;;;;;12.77;5.47;;;1.10;99.90;;;;;;5001852;28;20026;-86
2021/11/29 02:02:54;;;;;;;12.30;5.33;;;1.20;99.90;;;;;;5012509;28;20026;-86
2021/11/29 02:05:21;;;;;;;12.67;5.93;;;1.20;99.90;;;;;;4997916;28;20479;-85
2021/11/29 02:07:47;;;;;;;13.23;6.07;;;1.20;99.90;;;;;;4993938;28;20034;-86
2021/11/29 02:10:14;;;;;;;13.03;4.73;;;1.20;99.90;;;;;;4993384;28;20033;-86
2021/11/29 02:12:40;;;;;;;11.80;4.93;;;1.20;99.90;;;;;;4975372;28;20026;-86
2021/11/29 02:15:07;;;;;;;13.23;5.83;;;1.20;99.90;;;;;;4993343;28;20077;-86
2021/11/29 02:17:33;;;;;;;12.97;5.57;;;1.20;99.90;;;;;;4976138;28;20125;-87
2021/11/29 02:20:01;;;;;;;11.73;5.20;;;1.20;99.90;;;;;;4975723;28;20022;-86
2021/11/29 02:22:27;;;;;;;16.07;6.60;;;1.20;99.90;;;;;;4992822;28;20146;-87
2021/11/29 02:24:52;;;;;;;14.73;5.93;;;1.20;99.90;;;;;;5011417;28;20516;-87
2021/11/29 02:27:18;;;;;;;13.10;5.87;;;1.10;99.90;;;;;;5032661;28;20091;-87
2021/11/29 02:29:44;;;;;;;14.77;5.87;;;1.10;99.90;;;;;;4991893;28;20049;-87
2021/11/29 02:32:10;;;;;;;15.23;5.63;;;1.10;99.90;;;;;;4992437;28;20045;-87
2021/11/29 02:34:36;;;;;;;15.63;6.87;;;1.10;99.90;;;;;;5002538;28;20478;-87
2021/11/29 02:37:04;;;;;;;15.27;6.00;;;1.10;99.90;;;;;;5002938;28;20022;-87
2021/11/29 02:39:30;;;;;;;14.77;6.80;;;1.10;99.90;;;;;;4975394;28;20037;-87
2021/11/29 02:41:58;;;;;;;16.20;7.50;;;1.20;99.90;;;;;;4975078;28;20030;-87
2021/11/29 02:44:24;;;;;;;16.07;7.63;;;1.10;99.90;;;;;;4993084;28;20390;-87
2021/11/29 02:46:50;;;;;;;16.40;7.30;;;1.10;99.90;;;;;;4975216;28;20031;-87
2021/11/29 02:49:16;;;;;;;15.33;7.10;;;1.10;99.90;;;;;;4975191;28;20033;-86
2021/11/29 02:51:50;;;;;;;15.20;7.23;;;1.10;99.90;;;;;;4974886;28;20030;-86
2021/11/29 02:54:39;;;;;;;15.03;6.33;;;1.10;99.90;;;;;;4975313;28;20486;-86
2021/11/29 02:57:08;;;;;;;15.87;7.07;;;1.10;99.90;;;;;;4994443;28;20099;-86
2021/11/29 02:59:35;;;;;;;14.13;7.20;;;1.10;99.90;;;;;;4994708;28;20029;-88
2021/11/29 03:02:04;;;;;;;16.87;7.47;;;1.20;99.90;;;;;;4993917;28;20040;-86
2021/11/29 03:04:31;;;;;;;18.87;7.73;;;1.10;99.90;;;;;;4980285;28;20030;-87
2021/11/29 03:06:58;;;;;;;14.03;6.80;;;1.10;99.90;;;;;;4976774;28;20157;-87
2021/11/29 03:09:26;;;;;;;19.53;8.53;;;1.10;99.90;;;;;;4993181;28;20033;-86
2021/11/29 03:11:52;;;;;;;22.00;8.80;;;1.10;99.90;;;;;;4992222;28;20442;-86
2021/11/29 03:14:18;;;;;;;18.80;7.70;;;1.10;99.90;;;;;;4975381;28;20029;-86
2021/11/29 03:16:45;;;;;;;24.23;7.77;;;1.10;99.90;;;;;;4974928;28;20117;-87
2021/11/29 03:19:10;;;;;;;20.50;8.13;;;1.10;99.90;;;;;;4992520;28;20092;-86
2021/11/29 03:21:37;;;;;;;17.43;7.30;;;1.10;99.90;;;;;;4992036;28;20034;-87
2021/11/29 03:24:05;;;;;;;15.33;7.33;;;1.10;99.90;;;;;;5010597;28;20022;-85
2021/11/29 03:26:32;;;;;;;20.47;8.53;;;1.10;99.90;;;;;;5013919;28;20026;-88
2021/11/29 03:29:01;;;;;;;16.63;7.03;;;1.10;99.90;;;;;;5007336;28;20037;-86
2021/11/29 03:31:31;;;;;;;17.73;7.60;;;1.00;99.90;;;;;;4991785;28;20027;-86
2021/11/29 03:33:58;;;;;;;19.07;7.57;;;1.10;99.90;;;;;;4991698;28;20068;-86
2021/11/29 03:36:25;;;;;;;10.50;5.30;;;1.00;99.90;;;;;;5007684;28;20041;-87
2021/11/29 03:38:51;;;;;;;13.87;6.43;;;1.00;99.90;;;;;;4992001;28;20436;-87
2021/11/29 03:41:17;;;;;;;13.17;6.33;;;1.00;99.90;;;;;;4976584;28;20029;-87
2021/11/29 03:43:43;;;;;;;17.50;7.40;;;1.00;99.90;;;;;;4978568;28;20026;-87
2021/11/29 03:46:09;;;;;;;16.17;7.23;;;1.00;99.90;;;;;;4978323;28;20121;-87
2021/11/29 03:48:35;;;;;;;18.77;7.30;;;1.00;99.90;;;;;;4995895;28;20117;-87
2021/11/29 03:51:02;;;;;;;17.23;8.03;;;1.00;99.90;;;;;;4995377;28;20034;-87
2021/11/29 03:53:27;;;;;;;18.00;7.90;;;1.00;99.90;;;;;;4995823;28;20048;-86
2021/11/29 03:55:53;;;;;;;18.07;7.93;;;0.90;99.90;;;;;;4995745;28;20038;-86
2021/11/29 03:58:19;;;;;;;15.23;7.20;;;1.00;99.90;;;;;;4978215;28;20077;-87
2021/11/29 04:00:45;;;;;;;15.77;6.87;;;0.90;99.90;;;;;;4995656;28;20106;-86
2021/11/29 04:03:12;;;;;;;16.97;7.23;;;1.00;99.90;;;;;;4977781;28;20494;-87
2021/11/29 04:05:38;;;;;;;18.53;8.23;;;0.90;99.90;;;;;;4995456;28;20372;-87
2021/11/29 04:08:03;;;;;;;13.30;6.17;;;0.90;99.90;;;;;;4977886;28;20053;-87
2021/11/29 04:10:29;;;;;;;15.77;6.73;;;1.00;99.90;;;;;;4995075;28;20482;-87
2021/11/29 04:12:55;;;;;;;17.00;8.10;;;1.00;99.90;;;;;;4993792;28;20117;-87
2021/11/29 04:15:21;;;;;;;16.87;7.10;;;1.00;99.90;;;;;;4977998;28;20053;-87
2021/11/29 04:17:47;;;;;;;16.87;7.43;;;1.00;99.90;;;;;;4977878;28;20133;-87
2021/11/29 04:20:15;;;;;;;19.17;8.17;;;0.90;99.90;;;;;;4994510;28;20034;-86
2021/11/29 04:22:45;;;;;;;15.60;7.37;;;1.00;99.90;;;;;;4977622;28;20030;-87
2021/11/29 04:25:12;;;;;;;20.20;8.97;;;1.00;99.90;;;;;;5014675;28;20036;-87
2021/11/29 04:27:40;;;;;;;18.60;8.10;;;1.00;99.90;;;;;;5011467;28;20105;-87
2021/11/29 04:30:11;;;;;;;19.70;7.90;;;1.00;99.90;;;;;;4996607;28;20052;-86
2021/11/29 04:32:37;;;;;;;23.17;9.45;;;1.00;99.90;;;;;;5029235;23;20045;-86
2021/11/29 04:35:03;;;;;;;15.10;7.13;;;1.00;99.90;;;;;;5053090;28;20022;-86
2021/11/29 04:37:29;;;;;;;15.50;6.77;;;1.00;99.90;;;;;;5053158;28;20632;-86
2021/11/29 04:39:55;;;;;;;17.53;7.27;;;1.00;99.90;;;;;;5053744;28;20032;-86
2021/11/29 04:42:21;;;;;;;19.43;8.20;;;1.00;99.90;;;;;;5027395;28;20033;-86
2021/11/29 04:44:46;;;;;;;20.57;8.17;;;0.90;99.90;;;;;;5034130;28;20013;-86
2021/11/29 04:47:12;;;;;;;17.67;8.10;;;0.90;99.90;;;;;;5034577;28;20029;-85
2021/11/29 04:49:38;;;;;;;19.27;7.90;;;1.00;99.90;;;;;;5034714;28;20025;-86
2021/11/29 04:52:04;;;;;;;22.93;7.80;;;1.00;99.90;;;;;;5022443;28;20018;-86
2021/11/29 04:54:30;;;;;;;18.33;7.53;;;1.00;99.90;;;;;;5014724;28;20026;-86
2021/11/29 04:56:55;;;;;;;18.33;8.13;;;1.00;99.90;;;;;;4998114;28;20040;-86
2021/11/29 04:59:21;;;;;;;17.63;7.30;;;0.90;99.90;;;;;;5015392;28;20026;-86
2021/11/29 05:01:47;;;;;;;20.33;8.60;;;1.00;99.90;;;;;;5033710;28;20025;-85
2021/11/29 05:04:12;;;;;;;19.20;7.90;;;1.00;99.90;;;;;;5035225;28;20397;-86
2021/11/29 05:06:38;;;;;;;16.70;7.50;;;1.00;99.90;;;;;;5032717;28;20125;-85
2021/11/29 05:09:06;;;;;;;18.53;6.20;;;1.00;99.90;;;;;;5034080;28;20029;-87
2021/11/29 05:11:32;;;;;;;13.27;6.77;;;1.00;99.90;;;;;;5023127;28;20037;-85
2021/11/29 05:13:58;;;;;;;14.43;6.30;;;1.00;99.90;;;;;;5033186;28;20048;-86
2021/11/29 05:16:23;;;;;;;17.77;7.27;;;1.00;99.90;;;;;;5016990;28;20029;-86
2021/11/29 05:18:49;;;;;;;17.70;6.97;;;1.00;99.90;;;;;;5016977;28;20130;-86
2021/11/29 05:21:15;;;;;;;16.13;5.97;;;1.00;99.90;;;;;;5034599;28;20025;-85
2021/11/29 05:23:41;;;;;;;16.73;7.03;;;1.10;99.90;;;;;;5040965;28;20039;-85
2021/11/29 05:26:06;;;;;;;12.20;6.20;;;1.00;99.90;;;;;;5032312;28;20189;-87
2021/11/29 05:28:32;;;;;;;18.57;6.50;;;1.10;99.90;;;;;;5030327;28;20030;-86
2021/11/29 05:30:57;;;;;;;16.30;7.17;;;1.10;99.90;;;;;;5032666;28;20033;-86
2021/11/29 05:33:23;;;;;;;15.60;6.47;;;1.10;99.90;;;;;;5020914;28;20370;-85
2021/11/29 05:35:49;;;;;;;16.80;6.43;;;1.00;99.90;;;;;;5035880;28;20485;-86
2021/11/29 05:38:14;;;;;;;16.03;6.63;;;1.10;99.90;;;;;;5028139;28;20034;-86
2021/11/29 05:40:40;;;;;;;14.33;6.13;;;1.00;99.90;;;;;;5028344;28;20025;-86
2021/11/29 05:43:06;;;;;;;13.80;5.93;;;1.10;99.90;;;;;;5037046;28;20033;-86
2021/11/29 05:45:32;;;;;;;16.20;6.93;;;1.00;99.90;;;;;;5034688;28;20025;-86
2021/11/29 05:47:58;;;;;;;14.03;5.97;;;1.00;99.90;;;;;;5013380;28;20108;-86
2021/11/29 05:50:24;;;;;;;15.87;6.47;;;1.00;99.90;;;;;;5013148;28;20074;-86
2021/11/29 05:52:50;;;;;;;14.33;6.37;;;1.00;99.90;;;;;;5039500;28;20500;-86
2021/11/29 05:55:16;;;;;;;13.57;6.20;;;1.00;99.90;;;;;;5014009;28;20053;-84
2021/11/29 05:57:42;;;;;;;15.33;6.73;;;1.10;99.90;;;;;;5014053;28;20560;-85
2021/11/29 06:00:13;;;;;;;12.17;6.20;;;1.10;99.90;;;;;;5013401;28;20123;-85
2021/11/29 06:02:39;;;;;;;12.73;5.80;;;1.10;99.90;;;;;;5030119;28;20155;-85
2021/11/29 06:05:09;;;;;;;14.47;6.50;;;1.10;99.90;;;;;;5028549;28;20560;-85
2021/11/29 06:07:36;;;;;;;17.90;7.07;;;1.00;99.90;;;;;;5031190;28;20505;-86
2021/11/29 06:10:02;;;;;;;13.47;6.00;;;1.00;99.90;;;;;;5014929;28;20027;-86
2021/11/29 06:12:28;;;;;;;15.67;5.90;;;1.10;99.90;;;;;;5030853;28;20143;-86
2021/11/29 06:14:54;;;;;;;15.87;6.17;;;1.00;99.90;;;;;;5010399;28;20425;-86
2021/11/29 06:17:19;;;;;;;14.37;5.87;;;1.00;99.90;;;;;;5014125;28;20720;-86
2021/11/29 06:19:46;;;;;;;14.53;6.33;;;1.00;99.90;;;;;;5009243;28;20044;-86
2021/11/29 06:22:12;;;;;;;12.70;5.40;;;1.00;99.90;;;;;;5013491;28;20103;-86
2021/11/29 06:24:37;;;;;;;12.40;5.13;;;1.00;99.90;;;;;;5032380;28;20017;-85
2021/11/29 06:27:03;;;;;;;12.63;5.43;;;1.00;99.90;;;;;;5032390;28;20028;-85
2021/11/29 06:29:29;;;;;;;13.53;5.53;;;1.00;99.90;;;;;;5015968;28;20063;-85
2021/11/29 06:31:55;;;;;;;10.43;4.23;;;1.00;99.90;;;;;;5030337;28;20079;-85
2021/11/29 06:34:20;;;;;;;14.50;6.10;;;1.00;99.90;;;;;;5016034;28;20032;-86
2021/11/29 06:36:49;;;;;;;12.63;4.03;;;1.00;99.90;;;;;;5017993;28;20071;-85
2021/11/29 06:39:16;;;;;;;15.80;5.77;;;1.00;99.90;;;;;;5012638;28;20026;-86
2021/11/29 06:41:42;;;;;;;12.03;5.27;;;1.00;99.90;;;;;;5024962;28;20489;-85
2021/11/29 06:44:08;;;;;;;10.53;4.77;;;1.00;99.90;;;;;;5032800;28;20040;-86
2021/11/29 06:46:33;;;;;;;13.40;4.83;;;1.00;99.90;;;;;;5031001;28;20029;-85
2021/11/29 06:48:59;;;;;;;10.53;4.40;;;1.00;99.90;;;;;;5031650;28;20386;-85
2021/11/29 06:51:26;;;;;;;11.10;4.53;;;0.90;99.90;;;;;;5029224;28;20026;-86
2021/11/29 06:53:52;;;;;;;12.63;5.40;;;1.00;99.90;;;;;;5013967;28;20552;-85
2021/11/29 06:56:18;;;;;;;10.43;5.40;;;1.00;99.90;;;;;;5013553;28;20117;-85
2021/11/29 06:58:45;;;;;;;12.47;5.07;;;0.90;99.90;;;;;;5025812;28;20021;-85
2021/11/29 07:01:11;;;;;;;14.30;4.90;;;0.90;99.90;;;;;;5015450;28;20030;-84
2021/11/29 07:03:36;;;;;;;12.17;5.07;;;0.90;99.90;;;;;;5029781;28;20029;-86
2021/11/29 07:06:02;;;;;;;11.67;5.27;;;0.90;99.90;;;;;;5034003;28;20136;-85
2021/11/29 07:08:30;;;;;;;13.30;4.30;;;0.90;99.90;;;;;;5011920;28;20029;-85
2021/11/29 07:10:58;;;;;;;10.77;4.60;;;1.00;99.90;;;;;;5027130;28;20472;-86
2021/11/29 07:13:24;;;;;;;11.70;3.83;;;1.10;99.90;;;;;;5029031;28;20080;-84
2021/11/29 07:15:50;;;;;;;10.90;4.50;;;1.00;99.90;;;;;;5028755;28;20045;-85
2021/11/29 07:18:16;;;;;;;10.57;3.50;;;1.00;99.90;;;;;;5028919;28;20033;-85
2021/11/29 07:20:43;;;;;;;11.77;4.20;;;1.00;99.90;;;;;;5029065;28;20116;-85
2021/11/29 07:23:08;;;;;;;9.47;3.67;;;1.10;99.90;;;;;;5030320;28;20022;-86
2021/11/29 07:25:34;;;;;;;8.30;4.17;;;1.00;99.90;;;;;;5029927;28;20091;-87
2021/11/29 07:28:00;;;;;;;9.20;3.60;;;0.90;99.90;;;;;;5030175;28;20029;-86
2021/11/29 07:30:28;;;;;;;8.10;3.50;;;1.00;99.90;;;;;;5030771;28;20040;-86
2021/11/29 07:32:55;;;;;;;12.17;3.90;;;1.00;99.90;;;;;;5009767;28;20099;-86
2021/11/29 07:35:23;;;;;;;10.40;3.63;;;1.10;99.90;;;;;;5012946;28;20070;-86
2021/11/29 07:37:51;;;;;;;7.33;2.70;;;1.10;99.90;;;;;;5038404;28;20032;-85
2021/11/29 07:40:17;;;;;;;9.93;3.37;;;1.10;99.90;;;;;;5034550;28;20048;-85
2021/11/29 07:42:43;;;;;;;9.07;3.73;;;1.10;99.90;;;;;;5040432;28;20029;-86
2021/11/29 07:45:12;;;;;;;5.93;2.50;;;1.10;99.90;;;;;;5013213;28;20044;-85
2021/11/29 07:47:42;;;;;;;7.77;3.60;;;1.10;99.90;;;;;;5028817;28;20501;-85
2021/11/29 07:50:11;;;;;;;7.43;3.03;;;1.10;99.90;;;;;;5028221;28;20029;-85
2021/11/29 07:52:36;;;;;;;7.27;3.03;;;1.10;99.90;;;;;;5002034;28;20033;-86
2021/11/29 07:55:07;;;;;;;7.53;3.27;;;1.10;99.90;;;;;;5017127;28;20105;-86
2021/11/29 07:57:34;;;;;;;6.63;3.33;;;1.10;99.90;;;;;;5029390;28;20049;-85
2021/11/29 08:00:05;;;;;;;9.93;2.80;;;1.20;99.90;;;;;;5034105;28;20722;-86
2021/11/29 08:02:30;;;;;;;8.07;3.07;;;1.10;99.90;;;;;;5031640;28;20413;-86
2021/11/29 08:04:56;;;;;;;7.17;2.97;;;1.10;99.90;;;;;;5029298;28;20083;-85
2021/11/29 08:07:22;;;;;;;6.70;2.73;;;1.10;99.90;;;;;;5026659;28;20044;-85
2021/11/29 08:09:47;;;;;;;9.27;3.03;;;1.00;99.90;;;;;;5029846;28;20068;-85
2021/11/29 08:12:13;;;;;;;7.47;2.43;;;1.00;99.90;;;;;;5043452;28;20111;-84
2021/11/29 08:14:40;;;;;;;8.13;2.83;;;1.00;99.90;;;;;;5033500;28;20113;-85
2021/11/29 08:17:06;;;;;;;9.03;2.60;;;1.00;99.90;;;;;;5010326;28;20033;-84
2021/11/29 08:19:32;;;;;;;7.00;2.67;;;1.00;99.90;;;;;;5027157;28;20029;-84
2021/11/29 08:21:58;;;;;;;5.83;2.60;;;1.00;99.90;;;;;;5027065;28;20030;-85
2021/11/29 08:24:25;;;;;;;4.43;1.80;;;1.00;99.90;;;;;;5031203;28;20069;-85
2021/11/29 08:26:50;;;;;;;7.50;2.67;;;1.00;99.90;;;;;;5029163;28;20032;-85
2021/11/29 08:29:16;;;;;;;7.70;2.63;;;1.00;99.90;;;;;;5014360;28;20029;-85
2021/11/29 08:31:42;;;;;;;7.20;2.23;;;1.00;99.90;;;;;;5030634;28;20041;-87
2021/11/29 08:34:13;;;;;;;6.77;2.57;;;1.00;99.90;;;;;;5031377;28;20124;-85
2021/11/29 08:36:39;;;;;;;6.63;3.10;;;1.00;99.90;;;;;;5030526;28;20029;-86
2021/11/29 08:39:06;;;;;;;7.33;2.40;;;1.10;99.90;;;;;;5031056;28;20085;-85
2021/11/29 08:41:33;;;;;;;7.23;2.53;;;1.10;99.90;;;;;;5014519;28;20041;-85
2021/11/29 08:43:59;;;;;;;15.00;3.13;;;1.20;99.90;;;;;;5011499;28;20041;-85
2021/11/29 08:46:25;;;;;;;5.83;2.90;;;1.30;99.90;;;;;;4995720;28;20064;-84
2021/11/29 08:48:51;;;;;;;7.73;3.00;;;1.40;99.90;;;;;;4995509;28;20057;-85
2021/11/29 08:51:17;;;;;;;10.27;2.70;;;1.60;99.90;;;;;;5028443;28;20339;-85
2021/11/29 08:53:44;;;;;;;7.03;2.50;;;1.70;99.90;;;;;;5030050;28;20529;-83
2021/11/29 08:56:09;;;;;;;8.57;2.20;;;1.80;99.90;;;;;;5027529;28;20409;-85
2021/11/29 08:58:35;;;;;;;5.47;2.40;;;1.70;99.90;;;;;;5032756;28;20030;-85
2021/11/29 09:01:03;;;;;;;8.33;2.53;;;1.80;99.90;;;;;;5031105;28;20026;-84
2021/11/29 09:03:29;;;;;;;4.33;2.13;;;1.80;99.90;;;;;;5014855;28;20041;-85
2021/11/29 09:05:55;;;;;;;6.80;2.47;;;1.70;99.90;;;;;;5012952;28;20034;-86
2021/11/29 09:08:21;;;;;;;6.97;2.57;;;1.60;99.90;;;;;;5031839;28;20025;-84
2021/11/29 09:10:48;;;;;;;9.27;2.77;;;1.60;99.90;;;;;;5017024;28;20374;-85
2021/11/29 09:13:15;;;;;;;8.67;3.30;;;1.60;99.90;;;;;;5013415;28;20025;-85
2021/11/29 09:15:42;;;;;;;6.27;2.27;;;1.50;99.90;;;;;;5030336;28;20013;-84
2021/11/29 09:18:09;;;;;;;11.47;3.00;;;1.50;99.90;;;;;;5030870;28;20044;-85
2021/11/29 09:20:35;;;;;;;9.57;2.97;;;1.40;99.90;;;;;;5014197;28;20025;-84
2021/11/29 09:23:02;;;;;;;7.20;2.20;;;1.30;99.90;;;;;;5038676;28;20117;-85
2021/11/29 09:25:28;;;;;;;7.07;2.20;;;1.30;99.90;;;;;;5012632;28;20025;-84
2021/11/29 09:27:54;;;;;;;8.13;2.90;;;1.30;99.90;;;;;;5036322;28;20055;-85
2021/11/29 09:30:20;;;;;;;6.23;2.20;;;1.40;99.90;;;;;;5030737;28;20029;-85
2021/11/29 09:32:46;;;;;;;6.80;2.30;;;1.40;99.90;;;;;;5030688;28;20030;-85
2021/11/29 09:35:15;;;;;;;5.70;1.77;;;1.50;99.90;;;;;;5031620;28;20788;-85
2021/11/29 09:37:42;;;;;;;6.70;1.80;;;1.50;99.90;;;;;;5010084;28;20029;-85
2021/11/29 09:40:14;;;;;;;6.70;1.80;;;1.60;99.90;;;;;;5010633;28;20406;-85
2021/11/29 09:42:40;;;;;;;5.57;2.45;;;1.70;99.90;;;;;;5010478;28;20025;-84
2021/11/29 09:45:08;;;;;;;5.83;2.10;;;1.70;99.90;;;;;;5015691;28;20029;-85
2021/11/29 09:47:34;;;;;;;6.23;1.90;;;1.80;99.90;;;;;;5031592;28;20057;-86
2021/11/29 09:50:01;;;;;;;5.47;1.60;;;1.90;99.90;;;;;;5030691;28;20033;-84
2021/11/29 09:52:27;;;;;;;3.67;1.30;;;1.90;99.90;;;;;;5030924;28;20445;-85
2021/11/29 09:54:53;;;;;;;4.60;1.87;;;2.00;99.90;;;;;;5009448;28;20034;-84
2021/11/29 09:57:19;;;;;;;7.93;2.30;;;2.10;99.90;;;;;;4994102;28;20104;-85
2021/11/29 09:59:46;;;;;;;6.43;1.67;;;2.30;99.90;;;;;;5011738;28;20030;-85
2021/11/29 10:02:13;;;;;;;8.87;1.70;;;2.40;99.90;;;;;;4994902;28;20026;-85
2021/11/29 10:04:47;;;;;;;5.07;1.70;;;2.50;99.90;;;;;;5030018;28;20485;-84
2021/11/29 10:07:30;;;;;;;4.63;1.43;;;2.50;99.90;;;;;;5029955;28;20033;-84
2021/11/29 10:09:56;;;;;;;;;;;2.40;99.90;;;;;;5030026;28;20037;-84
2021/11/29 10:12:26;;;;;;;5.40;1.30;;;2.40;99.90;;;;;;5027971;28;20389;-85
2021/11/29 10:15:10;;;;;;;3.97;1.37;;;2.50;99.90;;;;;;5029919;28;20497;-84
2021/11/29 10:17:36;;;;;;;2.53;1.20;;;2.40;99.90;;;;;;5031034;28;20147;-84
2021/11/29 10:20:03;;;;;;;4.10;1.30;;;2.40;99.90;;;;;;5028694;28;20096;-84
2021/11/29 10:22:29;;;;;;;4.27;1.00;;;2.40;99.90;;;;;;5029657;28;20041;-83
2021/11/29 10:24:54;;;;;;;6.60;1.30;;;2.40;99.90;;;;;;5030852;28;20021;-84
2021/11/29 10:27:38;;;;;;;5.20;1.37;;;2.50;99.90;;;;;;5030774;28;20021;-84
2021/11/29 10:30:05;;;;;;;4.23;1.20;;;2.60;99.90;;;;;;5020036;28;20025;-85
2021/11/29 10:32:42;;;;;;;4.53;1.17;;;2.70;99.90;;;;;;5029103;28;20464;-83
2021/11/29 10:35:09;;;;;;;4.40;1.67;;;2.70;99.90;;;;;;5047433;22;20049;-84
2021/11/29 10:37:38;;;;;;;4.03;0.90;;;2.90;99.90;;;;;;5015874;28;20492;-86
2021/11/29 10:40:11;;;;;;;4.80;1.33;;;3.00;99.90;;;;;;5028387;28;20013;-87
2021/11/29 10:42:37;;;;;;;3.80;1.30;;;3.30;99.90;;;;;;5022979;28;20022;-86
2021/11/29 10:45:05;;;;;;;6.57;1.20;;;3.20;99.90;;;;;;5030768;28;20040;-87
2021/11/29 10:47:33;;;;;;;5.20;1.30;;;3.10;99.90;;;;;;5004904;28;20026;-86
2021/11/29 10:50:01;;;;;;;3.93;1.53;;;3.10;99.90;;;;;;5004675;28;20115;-84
2021/11/29 10:52:29;;;;;;;5.70;1.23;;;3.10;99.90;;;;;;5022781;28;20040;-86
2021/11/29 10:54:56;;;;;;;7.17;1.40;;;3.00;99.90;;;;;;5005946;28;20033;-85
2021/11/29 10:57:23;;;;;;;3.40;0.87;;;2.90;99.90;;;;;;5007128;28;20096;-85
2021/11/29 10:59:51;;;;;;;3.23;1.20;;;2.70;99.90;;;;;;5029548;28;20096;-85
2021/11/29 11:02:21;;;;;;;3.73;1.20;;;2.60;99.90;;;;;;5026728;28;20029;-85
2021/11/29 11:04:59;;;;;;;2.70;1.00;;;2.60;99.90;;;;;;5019424;28;20040;-85
2021/11/29 11:07:26;;;;;;;3.30;1.17;;;2.90;99.90;;;;;;5006832;28;20030;-86
2021/11/29 11:09:57;;;;;;;3.57;1.00;;;2.80;99.90;;;;;;5026453;28;20095;-85
2021/11/29 11:12:26;;;;;;;6.57;2.10;;;3.10;99.90;;;;;;5009625;28;20438;-85
2021/11/29 11:14:54;;;;;;;4.70;1.30;;;3.20;99.90;;;;;;5023181;28;20026;-84
2021/11/29 11:17:25;;;;;;;2.80;1.07;;;3.30;99.90;;;;;;5016862;28;20022;-87
2021/11/29 11:20:00;;;;;;;4.70;0.65;;;3.20;99.90;;;;;;5020536;28;20033;-87
2021/11/29 11:22:32;;;;;;;3.70;1.20;;;3.10;99.90;;;;;;5012722;28;20436;-87
2021/11/29 11:25:13;;;;;;;8.45;1.42;;;3.00;99.90;;;;;;5000894;28;20022;-86
2021/11/29 11:27:40;;;;;;;5.00;1.33;;;2.90;99.90;;;;;;4996946;28;20030;-85
2021/11/29 11:30:14;;;;;;;3.27;1.20;;;2.80;99.90;;;;;;4997754;28;20037;-87
2021/11/29 11:32:43;;;;;;;3.83;1.50;;;2.70;99.90;;;;;;4995053;28;20030;-86
2021/11/29 11:35:11;;;;;;;5.00;1.23;;;2.50;99.90;;;;;;5013394;28;20042;-86
2021/11/29 11:37:43;;;;;;;3.77;1.40;;;2.50;99.90;;;;;;4996009;28;20030;-86
2021/11/29 11:40:12;;;;;;;4.22;1.30;;;2.40;99.90;;;;;;4997000;28;20829;-84
2021/11/29 11:42:38;;;;;;;4.23;1.20;;;2.30;99.90;;;;;;5018176;28;20036;-86
2021/11/29 11:45:09;;;;;;;3.93;1.50;;;2.30;99.90;;;;;;5003573;28;20100;-86
2021/11/29 11:47:36;;;;;;;5.57;1.43;;;2.20;99.90;;;;;;5004880;28;20045;-85
2021/11/29 11:50:04;;;;;;;6.90;1.63;;;2.20;99.90;;;;;;5033963;28;20044;-85
2021/11/29 11:52:30;;;;;;;5.20;1.33;;;2.30;99.90;;;;;;5016341;28;20056;-86
2021/11/29 11:55:01;;;;;;;3.27;1.00;;;2.30;99.90;;;;;;5013090;28;20034;-86
2021/11/29 11:57:29;;;;;;;5.10;1.40;;;2.40;99.90;;;;;;4996729;28;20433;-86
2021/11/29 12:00:08;;;;;;;2.87;1.17;;;2.60;99.90;;;;;;5014140;28;20482;-86
2021/11/29 12:02:43;;;;;;;3.43;0.97;;;2.40;99.90;;;;;;5017545;28;20018;-84
2021/11/29 12:05:29;;;;;;;7.70;1.27;;;2.40;99.90;;;;;;5019608;28;20076;-85
2021/11/29 12:07:57;;;;;;;7.50;1.50;;;2.40;99.90;;;;;;5001670;28;20489;-85
2021/11/29 12:10:36;;;;;;;5.03;1.03;;;2.40;99.90;;;;;;5019403;28;20474;-85
2021/11/29 12:13:06;;;;;;;2.70;1.20;;;2.40;99.90;;;;;;5006620;28;20022;-84
2021/11/29 12:15:40;;;;;;;6.37;1.47;;;2.50;99.90;;;;;;5020374;28;20022;-86
2021/11/29 12:18:07;;;;;;;5.93;1.20;;;2.60;99.90;;;;;;5031550;28;20026;-85
2021/11/29 12:20:33;;;;;;;4.27;1.10;;;2.60;99.90;;;;;;5020817;28;20021;-86
2021/11/29 12:22:59;;;;;;;3.80;0.97;;;2.60;99.90;;;;;;5031720;28;20087;-86
2021/11/29 12:25:25;;;;;;;3.50;0.93;;;2.80;99.90;;;;;;5021375;28;20056;-86
2021/11/29 12:27:56;;;;;;;4.33;1.60;;;2.80;99.90;;;;;;5020565;28;20024;-87
2021/11/29 12:30:57;;;;;;;3.22;1.10;;;2.80;99.90;;;;;;5021276;28;20024;-86
2021/11/29 12:33:43;;;;;;;2.40;0.80;;;2.80;99.90;;;;;;4950138;29;20042;-85
2021/11/29 12:36:11;;;;;;;3.97;1.17;;;2.60;99.90;;;;;;5017234;28;20045;-86
2021/11/29 12:38:49;;;;;;;3.43;0.97;;;2.50;99.90;;;;;;5023726;28;20029;-84
2021/11/29 12:41:38;;;;;;;2.23;0.80;;;2.50;99.90;;;;;;5040024;28;20041;-85
2021/11/29 12:44:05;;;;;;;2.33;0.70;;;2.50;99.90;;;;;;5039523;28;20030;-86
2021/11/29 12:46:32;;;;;;;5.47;1.30;;;2.50;99.90;;;;;;5033209;28;20025;-87
2021/11/29 12:49:02;;;;;;;5.27;1.37;;;2.50;99.90;;;;;;5013196;28;20029;-87
2021/11/29 12:51:54;;;;;;;2.80;0.87;;;2.40;99.90;;;;;;5023406;28;20022;-87
2021/11/29 12:54:38;;;;;;;2.72;0.80;;;2.30;99.90;;;;;;5028263;28;20025;-87
2021/11/29 12:57:23;;;;;;;4.50;1.00;;;2.30;99.90;;;;;;5012113;28;20048;-87